FABL/BFN METAR and TAF weather

Enter ICAO airport designator
Station Type Date Time Source
FABL METAR 2019/12/05 23:00 UTC NOAA

FABL 052300Z AUTO 02007KT 9999 ///////// 15/12 Q1022


Station Type Date Time Source
FABL Decoded METAR 2019/12/05 23:00 UTC NOAA

Bloemfontein, Bloemfontein Airport, South Africa (FABL) 29-06S 026-18E 1400M
Dec 05, 2019 - 06:00 PM EST / 2019.12.05 2300 UTC
Wind: from the NNE (020 degrees) at 8 MPH (7 KT):0
Visibility: greater than 7 mile(s):0
Temperature: 59 F (15 C)
Dew Point: 53 F (12 C)
Relative Humidity: 82%
Pressure (altimeter): 30.18 in. Hg (1022 hPa)
ob: FABL 052300Z AUTO 02007KT 9999 ///////// 15/12 Q1022
cycle: 23

Station Type Date Time Source
FABL TAF 2019/12/05 18:04 UTC NOAA

TAF FABL 051600Z 0518/0618 05010KT 9999 BKN025 TX23/0612Z TN12/0603Z
BECMG 0604/0606 BKN020
BECMG 0607/0609 BKN035 SCT040TCU

Example: see airport list